createdAt,value
2022-12-01T00:03:05.369Z,4.69
2022-12-01T00:08:08.532Z,5.80
2022-12-01T00:13:11.326Z,4.89
2022-12-01T00:18:14.040Z,4.52
2022-12-01T00:23:16.783Z,6.07
2022-12-01T00:28:19.895Z,5.73
2022-12-01T00:33:22.710Z,4.36
2022-12-01T00:38:25.804Z,5.04
2022-12-01T00:43:28.604Z,6.46
2022-12-01T00:48:31.509Z,5.41
2022-12-01T00:53:34.412Z,4.87
2022-12-01T00:58:37.157Z,6.22
2022-12-01T01:03:40.026Z,5.29
2022-12-01T01:08:42.957Z,4.82
2022-12-01T01:13:45.683Z,5.94
2022-12-01T01:18:48.814Z,5.28
2022-12-01T01:23:53.888Z,4.71
2022-12-01T01:28:59.270Z,6.05
2022-12-01T01:34:03.529Z,5.49
2022-12-01T01:39:06.394Z,4.67
2022-12-01T01:44:46.928Z,5.67
2022-12-01T01:49:50.105Z,5.15
2022-12-01T01:54:55.787Z,4.69
2022-12-01T02:00:07.505Z,5.71
2022-12-01T02:05:16.797Z,5.34
2022-12-01T02:10:23.924Z,4.03
2022-12-01T02:15:39.327Z,5.30
2022-12-01T02:21:19.448Z,5.64
2022-12-01T02:26:52.637Z,4.06
2022-12-01T02:32:23.654Z,4.24
2022-12-01T02:37:47.669Z,6.25
2022-12-01T02:43:28.367Z,6.72
2022-12-01T02:48:36.797Z,5.01
2022-12-01T02:53:39.699Z,4.05
2022-12-01T02:58:44.130Z,3.56
2022-12-01T03:04:18.372Z,5.30
2022-12-01T03:09:47.277Z,7.25
2022-12-01T03:15:11.284Z,7.00
2022-12-01T03:20:28.020Z,5.30
2022-12-01T03:25:32.470Z,4.27
2022-12-01T03:30:37.922Z,4.83
2022-12-01T03:35:54.446Z,6.89
2022-12-01T03:41:02.094Z,7.20
2022-12-01T03:46:15.967Z,5.53
2022-12-01T03:51:33.368Z,4.42
2022-12-01T03:56:44.748Z,3.72
2022-12-01T04:01:48.406Z,5.12
2022-12-01T04:06:51.438Z,6.69
2022-12-01T04:12:12.867Z,6.90
2022-12-01T04:17:15.604Z,5.14
2022-12-01T04:22:19.258Z,5.02
2022-12-01T04:27:22.263Z,6.60
2022-12-01T04:32:25.068Z,7.68
2022-12-01T04:37:27.770Z,7.61
2022-12-01T04:42:30.515Z,5.55
2022-12-01T04:47:33.371Z,4.68
2022-12-01T04:52:37.733Z,6.07
2022-12-01T04:57:41.652Z,6.57
2022-12-01T05:02:44.440Z,5.06
2022-12-01T05:07:47.297Z,6.04
2022-12-01T05:12:50.244Z,7.25
2022-12-01T05:17:52.990Z,7.17
2022-12-01T05:23:06.793Z,5.21
2022-12-01T05:28:10.426Z,5.45
2022-12-01T05:33:13.358Z,6.97
2022-12-01T05:38:16.548Z,6.93
2022-12-01T05:43:26.922Z,5.23
2022-12-01T05:48:32.029Z,4.07
2022-12-01T05:53:34.819Z,4.40
2022-12-01T05:58:38.091Z,6.30
2022-12-01T06:03:40.849Z,7.59
2022-12-01T06:08:43.705Z,8.21
2022-12-01T06:13:46.474Z,6.72
2022-12-01T06:18:49.317Z,5.23
2022-12-01T06:23:52.121Z,4.28
2022-12-01T06:28:56.563Z,3.60
2022-12-01T06:33:59.442Z,4.13
2022-12-01T06:39:06.057Z,6.25
2022-12-01T06:44:08.940Z,7.54
2022-12-01T06:49:12.680Z,8.33
2022-12-01T06:54:17.920Z,8.18
2022-12-01T06:59:20.674Z,6.32
2022-12-01T07:04:23.606Z,5.11
2022-12-01T07:09:26.429Z,4.29
2022-12-01T07:14:31.072Z,5.08
2022-12-01T07:19:34.591Z,6.92
2022-12-01T07:24:37.494Z,7.99
2022-12-01T07:29:40.397Z,8.70
2022-12-01T07:34:43.168Z,7.98
2022-12-01T07:39:45.923Z,6.05
2022-12-01T07:44:48.702Z,4.84
2022-12-01T07:49:51.661Z,4.14
2022-12-01T07:54:54.718Z,5.59
2022-12-01T07:59:57.927Z,7.35
2022-12-01T08:05:00.730Z,8.24
2022-12-01T08:10:04.047Z,8.25
2022-12-01T08:15:07.783Z,6.38
2022-12-01T08:20:11.680Z,5.21
2022-12-01T08:25:15.104Z,4.88
2022-12-01T08:30:18.013Z,6.78
2022-12-01T08:35:20.952Z,8.21
2022-12-01T08:40:23.760Z,8.60
2022-12-01T08:45:27.043Z,6.91
2022-12-01T08:50:29.946Z,5.67
2022-12-01T08:55:32.841Z,5.77
2022-12-01T09:00:35.621Z,7.64
2022-12-01T09:05:38.359Z,8.57
2022-12-01T09:10:42.413Z,7.35
2022-12-01T09:15:55.453Z,5.95
2022-12-01T09:20:59.034Z,7.27
2022-12-01T09:26:01.819Z,8.74
2022-12-01T09:31:10.144Z,8.84
2022-12-01T09:36:13.389Z,7.02
2022-12-01T09:41:21.658Z,6.07
2022-12-01T09:46:30.746Z,7.51
2022-12-01T09:51:36.403Z,9.09
2022-12-01T09:56:47.023Z,9.17
2022-12-01T10:01:56.138Z,7.42
2022-12-01T10:07:02.634Z,6.91
2022-12-01T10:12:17.883Z,8.78
2022-12-01T10:17:32.731Z,9.87
2022-12-01T10:22:41.531Z,8.58
2022-12-01T10:28:04.247Z,7.05
2022-12-01T10:33:23.515Z,7.70
2022-12-01T10:38:31.022Z,9.17
2022-12-01T10:43:47.974Z,8.40
2022-12-01T10:49:07.519Z,6.84
2022-12-01T10:54:11.859Z,5.95
2022-12-01T10:59:36.014Z,6.64
2022-12-01T11:04:52.436Z,8.85
2022-12-01T11:10:00.451Z,9.24
2022-12-01T11:15:06.125Z,7.53
2022-12-01T11:20:48.637Z,6.48
2022-12-01T11:26:05.495Z,6.78
2022-12-01T11:31:10.544Z,8.87
2022-12-01T11:36:26.470Z,9.15
2022-12-01T11:41:40.928Z,7.35
2022-12-01T11:46:50.306Z,6.21
2022-12-01T11:52:16.872Z,5.53
2022-12-01T11:57:33.746Z,5.36
2022-12-01T12:03:03.195Z,7.53
2022-12-01T12:08:15.129Z,9.19
2022-12-01T12:13:36.559Z,8.93
2022-12-01T12:18:42.252Z,7.16
2022-12-01T12:23:44.999Z,6.07
2022-12-01T12:29:13.833Z,5.38
2022-12-01T12:34:46.282Z,6.32
2022-12-01T12:40:07.279Z,8.47
2022-12-01T12:45:40.586Z,9.02
2022-12-01T12:51:10.905Z,7.15
2022-12-01T12:56:17.884Z,5.89
2022-12-01T13:01:34.430Z,5.26
2022-12-01T13:06:43.729Z,7.02
2022-12-01T13:11:48.969Z,8.69
2022-12-01T13:16:57.149Z,8.89
2022-12-01T13:22:01.842Z,7.06
2022-12-01T13:27:10.793Z,5.85
2022-12-01T13:32:32.395Z,6.12
2022-12-01T13:37:37.901Z,8.28
2022-12-01T13:42:41.075Z,9.43
2022-12-01T13:47:47.187Z,9.19
2022-12-01T13:52:50.647Z,7.24
2022-12-01T13:57:59.187Z,5.93
2022-12-01T14:03:20.222Z,5.88
2022-12-01T14:08:27.768Z,7.94
2022-12-01T14:13:32.836Z,9.13
2022-12-01T14:19:02.130Z,8.24
2022-12-01T14:24:07.223Z,6.45
2022-12-01T14:29:23.675Z,5.42
2022-12-01T14:34:34.424Z,5.65
2022-12-01T14:39:40.844Z,7.74
2022-12-01T14:44:55.282Z,8.79
2022-12-01T14:50:13.170Z,8.61
2022-12-01T14:55:26.496Z,6.68
2022-12-01T15:00:30.506Z,5.50
2022-12-01T15:05:40.195Z,5.33
2022-12-01T15:10:59.783Z,7.57
2022-12-01T15:16:05.922Z,8.83
2022-12-01T15:21:29.347Z,7.95
2022-12-01T15:26:46.467Z,6.01
2022-12-01T15:31:55.957Z,5.98
2022-12-01T15:37:00.721Z,7.37
2022-12-01T15:42:04.546Z,5.87
2022-12-01T15:47:47.283Z,6.81
2022-12-01T15:52:50.285Z,7.93
2022-12-01T15:57:53.492Z,6.19
2022-12-01T16:02:59.507Z,5.06
2022-12-01T16:08:16.935Z,7.10
2022-12-01T16:13:57.377Z,6.72
2022-12-01T16:19:22.300Z,6.02
2022-12-01T16:24:42.635Z,7.32
2022-12-01T16:29:53.162Z,5.37
2022-12-01T16:34:56.625Z,6.55
2022-12-01T16:39:59.442Z,7.25
2022-12-01T16:45:02.207Z,5.38
2022-12-01T16:50:05.712Z,6.96
2022-12-01T16:55:27.375Z,6.12
2022-12-01T17:00:30.872Z,5.18
2022-12-01T17:05:34.348Z,6.58
2022-12-01T17:10:41.207Z,4.98
2022-12-01T17:15:46.364Z,5.11
2022-12-01T17:21:08.349Z,7.89
2022-12-01T17:26:14.879Z,8.21
2022-12-01T17:31:17.853Z,6.07
2022-12-01T17:36:21.029Z,4.77
2022-12-01T17:41:25.669Z,3.91
2022-12-01T17:46:29.621Z,4.76
2022-12-01T17:51:32.502Z,7.81
2022-12-01T17:56:35.504Z,8.15
2022-12-01T18:01:38.671Z,5.97
2022-12-01T18:06:42.134Z,4.77
2022-12-01T18:11:44.876Z,6.77
2022-12-01T18:16:47.840Z,7.34
2022-12-01T18:21:50.893Z,5.56
2022-12-01T18:26:54.899Z,4.35
2022-12-01T18:31:59.687Z,4.59
2022-12-01T18:37:03.233Z,7.29
2022-12-01T18:42:05.944Z,7.73
2022-12-01T18:47:08.916Z,5.62
2022-12-01T18:52:11.862Z,4.44
2022-12-01T18:57:14.859Z,6.41
2022-12-01T19:02:18.324Z,7.37
2022-12-01T19:07:28.057Z,5.34
2022-12-01T19:12:36.384Z,4.33
2022-12-01T19:17:42.272Z,5.94
2022-12-01T19:22:45.150Z,4.76
2022-12-01T19:27:48.259Z,3.43
2022-12-01T19:32:51.062Z,4.33
2022-12-01T19:37:53.832Z,6.05
2022-12-01T19:42:56.869Z,4.30
2022-12-01T19:47:59.646Z,3.54
2022-12-01T19:53:03.168Z,6.00
2022-12-01T19:58:06.021Z,5.69
2022-12-01T20:03:08.898Z,3.87
2022-12-01T20:08:13.986Z,3.15
2022-12-01T20:13:16.701Z,5.34
2022-12-01T20:18:19.629Z,4.29
2022-12-01T20:23:22.352Z,2.78
2022-12-01T20:28:25.110Z,2.80
2022-12-01T20:33:28.809Z,5.72
2022-12-01T20:38:31.786Z,5.86
2022-12-01T20:43:35.373Z,4.00
2022-12-01T20:48:38.618Z,2.77
2022-12-01T20:53:54.667Z,3.83
2022-12-01T20:59:05.629Z,6.66
2022-12-01T21:04:08.731Z,6.12
2022-12-01T21:09:13.668Z,4.18
2022-12-01T21:14:27.975Z,2.94
2022-12-01T21:19:46.526Z,2.84
2022-12-01T21:24:51.989Z,5.68
2022-12-01T21:29:55.811Z,4.62
2022-12-01T21:35:13.669Z,2.81
2022-12-01T21:40:24.136Z,2.29
2022-12-01T21:45:32.020Z,4.56
2022-12-01T21:50:34.770Z,3.87
2022-12-01T21:55:39.068Z,2.45
2022-12-01T22:00:42.633Z,2.84
2022-12-01T22:06:01.436Z,5.49
2022-12-01T22:11:18.803Z,4.51
2022-12-01T22:16:28.716Z,2.81
2022-12-01T22:21:32.958Z,1.99
2022-12-01T22:26:44.580Z,4.14
2022-12-01T22:31:48.183Z,4.48
2022-12-01T22:36:51.605Z,2.62
2022-12-01T22:41:59.622Z,2.37
2022-12-01T22:47:03.233Z,3.93
2022-12-01T22:52:28.674Z,2.55
2022-12-01T22:57:33.391Z,1.78
2022-12-01T23:02:36.306Z,4.18
2022-12-01T23:07:42.765Z,4.36
2022-12-01T23:12:48.482Z,2.32
2022-12-01T23:17:52.040Z,1.48
2022-12-01T23:22:57.253Z,4.06
2022-12-01T23:28:04.735Z,3.85
2022-12-01T23:33:16.883Z,2.05
2022-12-01T23:38:24.021Z,1.54
2022-12-01T23:43:33.475Z,3.34
2022-12-01T23:48:41.385Z,2.51
2022-12-01T23:53:44.478Z,1.33
2022-12-01T23:58:47.836Z,2.37
